Terminal Aerodrome Forecast
Issued by NWS

Current Version | Previous Version | Text Only | Print | Product List | Glossary On
Versions: 1 2 3 4 5 6 7 8 9 10 11 12 13 14 15 16 17 18 19 20 21 22 23 24 25 26 27 28 29 30
000
FTAK31 PANC 221421 AAA
TAFAVD
TAF AMD
PAVD 221421Z 2214/2312 VRB03KT P6SM -SHSN FEW025 SCT040 OVC070
      TEMPO 2214/2218 6SM -SN OVC040
     FM221800 VRB03KT P6SM -SHSN SCT025 OVC040
      AMD LTD TO CLD VIS AND WIND=

USA.gov is the U.S. government's official web portal to all federal, state and local government web resources and services.